createdAt,value
2023-02-11T00:03:56.274Z,0.1
2023-02-11T00:08:55.501Z,0.1
2023-02-11T00:13:55.026Z,0.1
2023-02-11T00:18:54.208Z,0.1
2023-02-11T00:23:59.235Z,0.1
2023-02-11T00:28:53.926Z,0.1
2023-02-11T00:33:53.316Z,0.1
2023-02-11T00:38:51.793Z,0.1
2023-02-11T00:43:51.719Z,0.1
2023-02-11T00:48:50.620Z,0.1
2023-02-11T00:53:50.296Z,0.1
2023-02-11T00:58:49.835Z,0.1
2023-02-11T01:03:49.545Z,0.1
2023-02-11T01:08:49.581Z,0.1
2023-02-11T01:13:49.330Z,0.1
2023-02-11T01:18:50.732Z,0.1
2023-02-11T01:23:46.889Z,0.1
2023-02-11T01:28:47.052Z,0.1
2023-02-11T01:33:46.165Z,0.1
2023-02-11T01:38:46.704Z,0.1
2023-02-11T01:43:43.893Z,0.1
2023-02-11T01:48:44.022Z,0.1
2023-02-11T01:53:42.873Z,0.1
2023-02-11T01:58:42.786Z,0.1
2023-02-11T02:03:42.990Z,0.1
2023-02-11T02:08:43.009Z,0.1
2023-02-11T02:13:43.678Z,0.1
2023-02-11T02:18:43.629Z,0.1
2023-02-11T02:23:39.945Z,0.1
2023-02-11T02:28:39.973Z,0.1
2023-02-11T02:33:38.901Z,0.1
2023-02-11T02:38:39.536Z,0.1
2023-02-11T02:43:38.556Z,0.2
2023-02-11T02:48:38.175Z,0.1
2023-02-11T02:53:38.282Z,0.1
2023-02-11T02:58:36.992Z,0.2
2023-02-11T03:00:00.971Z,0.1
2023-02-11T03:04:57.350Z,0.1
2023-02-11T03:09:57.489Z,0.1
2023-02-11T03:14:56.743Z,0.2
2023-02-11T03:19:56.694Z,0.1
2023-02-11T03:24:54.337Z,0.1
2023-02-11T03:29:54.649Z,0.1
2023-02-11T03:34:53.616Z,0.2
2023-02-11T03:39:53.437Z,0.1
2023-02-11T03:44:53.174Z,0.2
2023-02-11T03:49:52.906Z,0.1
2023-02-11T03:54:52.926Z,0.1
2023-02-11T03:59:17.069Z,0.2
2023-02-11T04:04:14.975Z,0.1
2023-02-11T04:09:14.445Z,0.1
2023-02-11T04:14:14.535Z,0.1
2023-02-11T04:19:13.540Z,0.1
2023-02-11T04:24:13.272Z,0.1
2023-02-11T04:29:12.639Z,0.1
2023-02-11T04:34:13.056Z,0.1
2023-02-11T04:39:12.512Z,0.1
2023-02-11T04:44:13.817Z,0.1
2023-02-11T04:49:09.959Z,0.2
2023-02-11T04:54:10.124Z,0.1
2023-02-11T04:58:55.580Z,0.1
2023-02-11T05:03:56.020Z,0.1
2023-02-11T05:08:53.168Z,0.1
2023-02-11T05:13:53.221Z,0.1
2023-02-11T05:18:54.289Z,0.1
2023-02-11T05:23:51.863Z,0.1
2023-02-11T05:28:51.886Z,0.1
2023-02-11T05:33:51.689Z,0.1
2023-02-11T05:38:51.310Z,0.2
2023-02-11T05:43:50.636Z,0.1
2023-02-11T05:48:48.481Z,0.1
2023-02-11T05:53:47.975Z,0.1
2023-02-11T05:58:47.542Z,0.1
2023-02-11T06:03:47.222Z,0.1
2023-02-11T06:08:46.670Z,0.2
2023-02-11T06:13:46.419Z,0.2
2023-02-11T06:18:46.264Z,0.2
2023-02-11T06:23:45.767Z,0.3
2023-02-11T06:28:47.348Z,0.6
2023-02-11T06:33:43.795Z,1.3
2023-02-11T06:38:44.277Z,2.5
2023-02-11T06:43:42.995Z,3.5
2023-02-11T06:48:46.267Z,4.3
2023-02-11T06:53:40.036Z,6.6
2023-02-11T06:58:39.805Z,6.8
2023-02-11T07:03:39.325Z,8.1
2023-02-11T07:08:39.182Z,11.6
2023-02-11T07:13:36.992Z,16.1
2023-02-11T07:18:37.271Z,20.8
2023-02-11T07:23:36.357Z,24.1
2023-02-11T07:28:36.565Z,27
2023-02-11T07:33:33.953Z,32.3
2023-02-11T07:38:34.009Z,33.2
2023-02-11T07:43:33.396Z,34.4
2023-02-11T07:48:33.170Z,40.2
2023-02-11T07:53:33.355Z,42.1
2023-02-11T07:58:33.339Z,50.3
2023-02-11T07:59:53.696Z,52.9
2023-02-11T08:04:53.753Z,57.9
2023-02-11T08:09:54.538Z,62
2023-02-11T08:14:50.743Z,61.9
2023-02-11T08:19:51.082Z,57.2
2023-02-11T08:24:53.882Z,56.1
2023-02-11T08:29:49.671Z,52.9
2023-02-11T08:34:47.349Z,52.5
2023-02-11T08:39:47.625Z,71.3
2023-02-11T08:44:46.567Z,105.8
2023-02-11T08:49:48.430Z,120.1
2023-02-11T08:54:44.040Z,108.1
2023-02-11T08:59:14.083Z,98.4
2023-02-11T09:04:14.065Z,68.8
2023-02-11T09:09:13.900Z,64
2023-02-11T09:14:11.493Z,75.7
2023-02-11T09:19:11.566Z,111.2
2023-02-11T09:24:10.773Z,167
2023-02-11T09:29:10.460Z,136.9
2023-02-11T09:34:10.311Z,138.4
2023-02-11T09:39:09.822Z,174.3
2023-02-11T09:44:09.424Z,105.6
2023-02-11T09:49:08.868Z,193.3
2023-02-11T09:54:10.284Z,200.8
2023-02-11T09:58:53.844Z,260.8
2023-02-11T10:03:54.465Z,163.9
2023-02-11T10:08:53.577Z,140.5
2023-02-11T10:13:53.646Z,136.5
2023-02-11T10:18:51.153Z,270.8
2023-02-11T10:23:51.110Z,201.2
2023-02-11T10:28:51.664Z,157.5
2023-02-11T10:33:53.372Z,123.8
2023-02-11T10:39:10.481Z,200
2023-02-11T10:43:49.192Z,168
2023-02-11T10:48:48.633Z,233.8
2023-02-11T10:53:49.172Z,377.2
2023-02-11T10:58:46.704Z,396.7
2023-02-11T11:03:46.984Z,415.2
2023-02-11T11:08:46.414Z,406.9
2023-02-11T11:13:46.897Z,412
2023-02-11T11:18:45.640Z,411.1
2023-02-11T11:23:45.863Z,418.4
2023-02-11T11:28:46.158Z,419.7
2023-02-11T11:33:45.831Z,367.3
2023-02-11T11:38:47.555Z,398.1
2023-02-11T11:43:44.006Z,400.8
2023-02-11T11:48:44.029Z,401
2023-02-11T11:58:43.767Z,404
2023-02-11T12:03:40.901Z,402.4
2023-02-11T12:09:34.663Z,398.9
2023-02-11T12:13:40.084Z,389.7
2023-02-11T12:18:39.965Z,385.5
2023-02-11T12:23:40.155Z,381.6
2023-02-11T12:28:39.853Z,379.5
2023-02-11T12:33:41.592Z,372.7
2023-02-11T12:38:37.303Z,365.3
2023-02-11T12:43:37.822Z,365.3
2023-02-11T12:48:37.527Z,348.4
2023-02-11T12:53:36.713Z,346.3
2023-02-11T12:58:46.868Z,347.3
2023-02-11T12:59:55.193Z,358.6
2023-02-11T13:04:54.346Z,332.2
2023-02-11T13:09:54.057Z,338
2023-02-11T13:14:53.409Z,348
2023-02-11T13:19:53.387Z,353.5
2023-02-11T13:24:53.610Z,372.7
2023-02-11T13:29:53.048Z,236.9
2023-02-11T13:34:53.790Z,326.8
2023-02-11T13:39:50.018Z,328.2
2023-02-11T13:44:49.772Z,322.9
2023-02-11T13:49:49.435Z,306.7
2023-02-11T13:54:49.005Z,312.9
2023-02-11T13:59:12.769Z,353.5
2023-02-11T14:04:12.432Z,383.5
2023-02-11T14:09:11.813Z,333
2023-02-11T14:14:13.531Z,143.6
2023-02-11T14:19:08.970Z,115.1
2023-02-11T14:24:09.041Z,141.7
2023-02-11T14:29:08.873Z,167.9
2023-02-11T14:34:07.579Z,165
2023-02-11T14:39:04.994Z,102.7
2023-02-11T14:44:04.710Z,105
2023-02-11T14:49:03.748Z,156.3
2023-02-11T14:54:04.807Z,185
2023-02-11T14:58:49.222Z,114.3
2023-02-11T15:03:49.326Z,95.1
2023-02-11T15:08:48.325Z,105.2
2023-02-11T15:13:49.086Z,67.2
2023-02-11T15:18:46.490Z,53.2
2023-02-11T15:23:46.577Z,45.8
2023-02-11T15:28:45.838Z,32.6
2023-02-11T15:33:47.120Z,34.5
2023-02-11T15:38:43.336Z,22.7
2023-02-11T15:43:42.871Z,14.3
2023-02-11T15:48:42.805Z,11.6
2023-02-11T15:53:42.613Z,9.1
2023-02-11T15:58:39.967Z,9.7
2023-02-11T16:03:39.149Z,8.4
2023-02-11T16:08:38.492Z,7.5
2023-02-11T16:13:38.238Z,6.5
2023-02-11T16:28:37.525Z,5.2
2023-02-11T16:33:36.903Z,3.8
2023-02-11T16:38:38.004Z,3.7
2023-02-11T16:43:34.536Z,2.4
2023-02-11T16:48:34.081Z,1.6
2023-02-11T16:53:33.596Z,1
2023-02-11T16:58:32.607Z,0.6
2023-02-11T16:59:53.873Z,0.5
2023-02-11T17:04:53.825Z,0.3
2023-02-11T17:09:53.488Z,0.2
2023-02-11T17:14:54.185Z,0.2
2023-02-11T17:19:50.606Z,0.2
2023-02-11T17:24:50.453Z,0.2
2023-02-11T17:29:49.641Z,0.1
2023-02-11T17:34:49.934Z,0.2
2023-02-11T17:39:47.000Z,0.2
2023-02-11T17:44:47.325Z,0.2
2023-02-11T17:49:46.221Z,0.2
2023-02-11T17:54:46.121Z,0.2
2023-02-11T17:58:55.857Z,0.2
2023-02-11T18:03:57.345Z,0.2
2023-02-11T18:08:58.688Z,0.2
2023-02-11T18:13:54.537Z,0.1
2023-02-11T18:18:56.485Z,0.2
2023-02-11T18:23:52.401Z,0.2
2023-02-11T18:28:51.801Z,0.2
2023-02-11T18:33:51.816Z,0.2
2023-02-11T18:38:51.525Z,0.2
2023-02-11T18:43:50.980Z,0.1
2023-02-11T18:48:50.998Z,0.2
2023-02-11T18:53:50.540Z,0.2
2023-02-11T18:58:52.570Z,0.1
2023-02-11T19:03:48.062Z,0.1
2023-02-11T19:08:47.965Z,0.1
2023-02-11T19:13:47.761Z,0.1
2023-02-11T19:18:47.144Z,0.1
2023-02-11T19:23:44.655Z,0.1
2023-02-11T19:28:44.802Z,0.2
2023-02-11T19:33:43.818Z,0.2
2023-02-11T19:38:44.035Z,0.1
2023-02-11T19:43:43.496Z,0.2
2023-02-11T19:48:43.146Z,0.2
2023-02-11T19:53:43.404Z,0.2
2023-02-11T19:58:43.048Z,0.2
2023-02-11T20:03:44.169Z,0.2
2023-02-11T20:08:39.885Z,0.2
2023-02-11T20:13:39.738Z,0.1
2023-02-11T20:18:39.828Z,0.1
2023-02-11T20:23:38.750Z,0.2
2023-02-11T20:28:38.495Z,0.2
2023-02-11T20:33:38.764Z,0.2
2023-02-11T20:38:38.104Z,0.2
2023-02-11T20:43:39.581Z,0.2
2023-02-11T20:48:35.699Z,0.2
2023-02-11T20:53:35.735Z,0.1
2023-02-11T20:58:35.191Z,0.2
2023-02-11T20:59:57.281Z,0.2
2023-02-11T21:04:54.802Z,0.1
2023-02-11T21:09:54.522Z,0.1
2023-02-11T21:14:54.539Z,0.1
2023-02-11T21:19:53.743Z,0.2
2023-02-11T21:24:53.275Z,0.2
2023-02-11T21:29:56.626Z,0.1
2023-02-11T21:34:53.620Z,0.2
2023-02-11T21:39:53.160Z,0.2
2023-02-11T21:44:54.228Z,0.1
2023-02-11T21:49:50.950Z,0.2
2023-02-11T21:54:50.175Z,0.2
2023-02-11T21:59:14.041Z,0.1
2023-02-11T22:04:14.110Z,0.2
2023-02-11T22:09:13.346Z,0.1
2023-02-11T22:14:13.521Z,0.2
2023-02-11T22:19:13.051Z,0.2
2023-02-11T22:24:13.772Z,0.2
2023-02-11T22:29:09.697Z,0.1
2023-02-11T22:34:09.805Z,0.2
2023-02-11T22:39:09.262Z,0.1
2023-02-11T22:44:09.494Z,0.1
2023-02-11T22:49:06.528Z,0.1
2023-02-11T22:54:06.812Z,0.2
2023-02-11T22:58:53.298Z,0.2
2023-02-11T23:03:53.087Z,0.1
2023-02-11T23:08:52.342Z,0.1
2023-02-11T23:13:52.083Z,0.2
2023-02-11T23:18:50.806Z,0.1
2023-02-11T23:23:50.725Z,0.1
2023-02-11T23:28:48.371Z,0.1
2023-02-11T23:33:48.591Z,0.1
2023-02-11T23:38:47.709Z,0.1
2023-02-11T23:43:47.384Z,0.1
2023-02-11T23:48:46.395Z,0.1
2023-02-11T23:53:46.258Z,0.1
2023-02-11T23:58:46.089Z,0.1
